createdAt,value
2022-12-31T00:01:11.267Z,76.37
2022-12-31T00:03:40.568Z,76.64
2022-12-31T00:06:17.982Z,75.60
2022-12-31T00:08:46.466Z,75.66
2022-12-31T00:11:15.434Z,75.73
2022-12-31T00:13:46.560Z,75.47
2022-12-31T00:16:17.352Z,75.04
2022-12-31T00:18:46.575Z,75.24
2022-12-31T00:21:16.157Z,75.21
2022-12-31T00:23:44.856Z,74.48
2022-12-31T00:26:15.604Z,74.59
2022-12-31T00:28:46.455Z,74.05
2022-12-31T00:31:17.006Z,74.93
2022-12-31T00:33:46.515Z,73.82
2022-12-31T00:36:16.882Z,74.06
2022-12-31T00:38:47.130Z,74.60
2022-12-31T00:41:17.016Z,74.30
2022-12-31T00:43:47.559Z,73.83
2022-12-31T00:46:16.854Z,73.73
2022-12-31T00:48:45.873Z,73.72
2022-12-31T00:51:17.248Z,73.98
2022-12-31T00:53:46.356Z,73.96
2022-12-31T00:56:17.094Z,73.67
2022-12-31T00:58:46.983Z,73.78
2022-12-31T01:01:18.967Z,73.45
2022-12-31T01:03:49.217Z,74.21
2022-12-31T01:06:18.364Z,73.10
2022-12-31T01:08:49.614Z,73.64
2022-12-31T01:11:23.018Z,73.21
2022-12-31T01:13:56.135Z,74.05
2022-12-31T01:16:28.172Z,73.39
2022-12-31T01:18:59.131Z,73.48
2022-12-31T01:21:28.513Z,73.41
2022-12-31T01:23:57.100Z,72.79
2022-12-31T01:26:25.600Z,73.03
2022-12-31T01:28:55.663Z,73.20
2022-12-31T01:31:25.785Z,72.93
2022-12-31T01:33:54.781Z,72.57
2022-12-31T01:36:26.628Z,72.75
2022-12-31T01:38:56.562Z,71.85
2022-12-31T01:41:27.114Z,71.33
2022-12-31T01:43:59.286Z,71.57
2022-12-31T01:46:34.552Z,70.34
2022-12-31T01:49:06.555Z,70.42
2022-12-31T01:51:36.217Z,69.71
2022-12-31T01:54:08.355Z,68.76
2022-12-31T01:56:39.637Z,67.98
2022-12-31T01:59:12.097Z,68.05
2022-12-31T02:01:40.662Z,68.51
2022-12-31T02:04:13.121Z,67.76
2022-12-31T02:06:45.508Z,67.87
2022-12-31T02:09:13.956Z,67.64
2022-12-31T02:11:42.817Z,68.21
2022-12-31T02:14:15.747Z,68.34
2022-12-31T02:16:53.221Z,67.72
2022-12-31T02:19:45.593Z,67.15
2022-12-31T02:22:28.095Z,66.54
2022-12-31T02:25:24.791Z,66.65
2022-12-31T02:28:04.114Z,66.26
2022-12-31T02:30:35.890Z,65.70
2022-12-31T02:33:10.914Z,65.09
2022-12-31T02:35:47.671Z,66.19
2022-12-31T02:38:22.725Z,66.38
2022-12-31T02:40:53.589Z,65.91
2022-12-31T02:43:22.026Z,66.15
2022-12-31T02:45:59.281Z,66.25
2022-12-31T02:48:38.273Z,66.14
2022-12-31T02:51:20.157Z,66.14
2022-12-31T02:54:12.760Z,65.86
2022-12-31T02:56:50.556Z,65.69
2022-12-31T02:59:43.480Z,64.98
2022-12-31T03:02:19.718Z,65.92
2022-12-31T03:04:52.376Z,65.62
2022-12-31T03:07:23.191Z,64.38
2022-12-31T03:09:52.130Z,64.79
2022-12-31T03:12:40.787Z,64.78
2022-12-31T03:15:20.153Z,64.35
2022-12-31T03:17:57.283Z,63.80
2022-12-31T03:20:47.030Z,64.28
2022-12-31T03:23:19.242Z,64.57
2022-12-31T03:25:47.099Z,64.86
2022-12-31T03:28:18.918Z,65.36
2022-12-31T03:30:49.787Z,65.45
2022-12-31T03:33:20.494Z,65.10
2022-12-31T03:35:50.455Z,64.56
2022-12-31T03:38:19.621Z,65.10
2022-12-31T03:40:50.498Z,64.12
2022-12-31T03:43:20.261Z,64.84
2022-12-31T03:45:49.638Z,64.29
2022-12-31T03:48:20.218Z,65.62
2022-12-31T03:50:48.708Z,64.99
2022-12-31T03:53:17.577Z,63.73
2022-12-31T03:55:46.044Z,63.77
2022-12-31T03:58:14.526Z,63.84
2022-12-31T04:00:44.000Z,64.36
2022-12-31T04:03:12.546Z,64.08
2022-12-31T04:05:42.433Z,63.32
2022-12-31T04:08:10.920Z,64.43
2022-12-31T04:10:39.367Z,64.25
2022-12-31T04:13:07.804Z,63.90
2022-12-31T04:15:36.250Z,64.29
2022-12-31T04:18:04.978Z,65.07
2022-12-31T04:20:33.387Z,64.27
2022-12-31T04:23:03.319Z,65.23
2022-12-31T04:25:40.513Z,63.94
2022-12-31T04:28:09.045Z,63.50
2022-12-31T04:30:37.521Z,63.90
2022-12-31T04:33:06.025Z,64.05
2022-12-31T04:35:34.537Z,64.93
2022-12-31T04:38:04.732Z,65.30
2022-12-31T04:40:33.303Z,64.27
2022-12-31T04:43:01.745Z,63.67
2022-12-31T04:45:30.179Z,63.08
2022-12-31T04:47:58.602Z,64.24
2022-12-31T04:50:27.056Z,64.00
2022-12-31T04:52:55.522Z,64.87
2022-12-31T04:55:25.314Z,65.55
2022-12-31T04:57:53.817Z,64.14
2022-12-31T05:00:22.495Z,64.20
2022-12-31T05:02:51.210Z,64.93
2022-12-31T05:05:19.789Z,63.90
2022-12-31T05:07:48.362Z,64.13
2022-12-31T05:10:17.079Z,63.69
2022-12-31T05:12:46.889Z,64.00
2022-12-31T05:15:15.424Z,64.72
2022-12-31T05:17:44.045Z,64.90
2022-12-31T05:20:13.322Z,66.24
2022-12-31T05:22:41.863Z,66.12
2022-12-31T05:25:10.359Z,66.50
2022-12-31T05:27:39.913Z,66.99
2022-12-31T05:30:11.015Z,68.12
2022-12-31T05:32:39.801Z,68.68
2022-12-31T05:35:08.955Z,68.71
2022-12-31T05:37:37.517Z,69.41
2022-12-31T05:40:07.473Z,68.96
2022-12-31T05:42:36.253Z,70.02
2022-12-31T05:45:05.315Z,69.92
2022-12-31T05:47:35.218Z,70.12
2022-12-31T05:50:03.682Z,70.53
2022-12-31T05:52:32.127Z,70.63
2022-12-31T05:55:00.617Z,71.47
2022-12-31T05:57:29.094Z,71.44
2022-12-31T05:59:57.607Z,71.57
2022-12-31T06:02:26.198Z,71.65
2022-12-31T06:04:56.074Z,70.87
2022-12-31T06:07:24.598Z,71.24
2022-12-31T06:09:53.093Z,70.79
2022-12-31T06:12:21.567Z,70.56
2022-12-31T06:14:50.013Z,70.46
2022-12-31T06:17:19.112Z,70.72
2022-12-31T06:19:49.385Z,69.38
2022-12-31T06:22:19.240Z,69.05
2022-12-31T06:24:48.593Z,69.20
2022-12-31T06:27:17.107Z,68.66
2022-12-31T06:29:45.863Z,68.95
2022-12-31T06:32:14.367Z,68.90
2022-12-31T06:34:42.819Z,68.94
2022-12-31T06:37:11.627Z,69.47
2022-12-31T06:39:41.409Z,68.76
2022-12-31T06:42:09.667Z,68.46
2022-12-31T06:44:38.704Z,68.67
2022-12-31T06:47:07.136Z,68.49
2022-12-31T06:49:35.604Z,68.01
2022-12-31T06:52:04.100Z,68.34
2022-12-31T06:54:32.861Z,69.29
2022-12-31T06:57:03.579Z,68.54
2022-12-31T06:59:32.646Z,68.55
2022-12-31T07:02:14.640Z,68.70
2022-12-31T07:05:03.248Z,68.56
2022-12-31T07:07:36.026Z,69.25
2022-12-31T07:10:17.526Z,68.68
2022-12-31T07:13:02.631Z,69.01
2022-12-31T07:15:48.131Z,68.63
2022-12-31T07:18:25.097Z,68.82
2022-12-31T07:20:54.188Z,69.13
2022-12-31T07:23:23.317Z,68.99
2022-12-31T07:25:57.296Z,69.17
2022-12-31T07:28:42.142Z,69.12
2022-12-31T07:31:19.670Z,68.67
2022-12-31T07:33:58.841Z,69.12
2022-12-31T07:36:44.852Z,69.19
2022-12-31T07:39:16.454Z,69.15
2022-12-31T07:41:55.440Z,69.36
2022-12-31T07:44:42.082Z,69.83
2022-12-31T07:47:21.033Z,69.41
2022-12-31T07:49:50.163Z,69.86
2022-12-31T07:52:19.667Z,69.65
2022-12-31T07:54:48.678Z,69.67
2022-12-31T07:57:19.035Z,69.42
2022-12-31T08:00:04.943Z,68.43
2022-12-31T08:03:01.258Z,69.38
2022-12-31T08:05:34.712Z,68.10
2022-12-31T08:08:19.786Z,67.90
2022-12-31T08:10:59.227Z,68.05
2022-12-31T08:13:28.654Z,67.28
2022-12-31T08:15:59.025Z,67.53
2022-12-31T08:18:27.933Z,68.00
2022-12-31T08:21:09.201Z,66.57
2022-12-31T08:23:46.861Z,66.40
2022-12-31T08:26:24.681Z,66.26
2022-12-31T08:29:06.224Z,66.38
2022-12-31T08:31:47.804Z,65.22
2022-12-31T08:34:23.012Z,66.09
2022-12-31T08:36:57.662Z,65.52
2022-12-31T08:39:39.229Z,64.69
2022-12-31T08:42:21.420Z,65.00
2022-12-31T08:44:59.722Z,65.03
2022-12-31T08:47:39.491Z,64.71
2022-12-31T08:50:14.892Z,63.60
2022-12-31T08:52:44.163Z,64.96
2022-12-31T08:55:18.760Z,64.46
2022-12-31T08:57:56.731Z,63.88
2022-12-31T09:00:27.425Z,62.97
2022-12-31T09:03:24.437Z,62.69
2022-12-31T09:06:02.314Z,63.71
2022-12-31T09:08:40.627Z,62.06
2022-12-31T09:11:20.909Z,61.82
2022-12-31T09:14:18.527Z,61.88
2022-12-31T09:16:56.282Z,61.99
2022-12-31T09:19:26.267Z,62.21
2022-12-31T09:21:55.389Z,63.47
2022-12-31T09:24:24.408Z,62.58
2022-12-31T09:27:06.857Z,61.77
2022-12-31T09:29:48.384Z,62.27
2022-12-31T09:32:25.135Z,62.14
2022-12-31T09:34:59.196Z,63.30
2022-12-31T09:37:39.572Z,62.51
2022-12-31T09:40:39.914Z,61.73
2022-12-31T09:43:38.126Z,61.13
2022-12-31T09:46:26.032Z,60.22
2022-12-31T09:49:22.748Z,59.48
2022-12-31T09:52:02.399Z,58.74
2022-12-31T09:54:53.393Z,58.78
2022-12-31T09:57:35.138Z,58.72
2022-12-31T10:00:07.055Z,57.37
2022-12-31T11:39:40.657Z,47.45
2022-12-31T11:43:31.255Z,47.72
2022-12-31T11:46:39.799Z,48.34
2022-12-31T11:49:18.218Z,49.02
2022-12-31T11:52:19.527Z,49.76
2022-12-31T11:55:03.803Z,49.03
2022-12-31T11:57:35.593Z,49.48
2022-12-31T12:00:16.660Z,48.53
2022-12-31T12:02:48.846Z,48.13
2022-12-31T12:05:21.167Z,48.41
2022-12-31T12:07:50.610Z,47.85
2022-12-31T12:10:29.121Z,48.29
2022-12-31T12:13:02.220Z,48.28
2022-12-31T12:15:35.627Z,48.18
2022-12-31T12:18:09.390Z,47.55
2022-12-31T12:20:41.038Z,48.20
2022-12-31T12:23:16.973Z,48.49
2022-12-31T12:25:45.901Z,47.78
2022-12-31T12:28:20.894Z,47.87
2022-12-31T12:30:57.371Z,48.67
2022-12-31T12:33:26.561Z,48.00
2022-12-31T12:35:55.053Z,47.79
2022-12-31T12:38:24.712Z,46.95
2022-12-31T12:40:55.683Z,48.06
2022-12-31T12:43:27.484Z,47.04
2022-12-31T12:46:01.661Z,48.15
2022-12-31T12:48:39.299Z,47.97
2022-12-31T12:51:20.021Z,47.95
2022-12-31T12:53:58.023Z,48.66
2022-12-31T12:56:38.144Z,48.29
2022-12-31T12:59:41.075Z,47.94
2022-12-31T13:02:28.452Z,48.35
2022-12-31T13:05:09.809Z,47.94
2022-12-31T13:07:49.538Z,48.92
2022-12-31T13:10:34.651Z,47.87
2022-12-31T13:13:23.794Z,48.33
2022-12-31T13:16:02.287Z,49.39
2022-12-31T13:18:49.614Z,49.26
2022-12-31T13:21:30.778Z,49.44
2022-12-31T13:24:04.943Z,49.30
2022-12-31T13:26:37.756Z,49.40
2022-12-31T13:29:10.146Z,51.00
2022-12-31T13:31:41.329Z,50.91
2022-12-31T13:34:18.922Z,50.35
2022-12-31T13:36:51.297Z,51.35
2022-12-31T13:39:24.459Z,52.04
2022-12-31T13:41:59.972Z,52.05
2022-12-31T13:44:30.144Z,53.05
2022-12-31T13:47:05.998Z,52.68
2022-12-31T13:49:42.923Z,55.39
2022-12-31T13:52:25.489Z,55.40
2022-12-31T13:54:59.494Z,52.96
2022-12-31T13:57:40.939Z,56.41
2022-12-31T14:00:20.212Z,56.25
2022-12-31T14:02:57.789Z,56.58
2022-12-31T14:05:33.358Z,57.78
2022-12-31T14:08:03.419Z,57.68
2022-12-31T14:10:47.457Z,58.55
2022-12-31T14:13:35.082Z,57.52
2022-12-31T14:16:16.019Z,58.99
2022-12-31T14:18:52.215Z,59.25
2022-12-31T14:21:27.702Z,60.56
2022-12-31T14:24:06.559Z,57.59
2022-12-31T14:26:39.714Z,59.36
2022-12-31T14:29:22.479Z,56.60
2022-12-31T14:32:18.694Z,57.47
2022-12-31T14:34:57.105Z,59.47
2022-12-31T14:37:34.966Z,60.55
2022-12-31T14:40:19.434Z,59.92
2022-12-31T14:43:02.003Z,60.27
2022-12-31T14:45:44.837Z,62.99
2022-12-31T14:48:26.574Z,59.94
2022-12-31T14:50:55.964Z,61.38
2022-12-31T14:53:27.509Z,62.18
2022-12-31T14:56:01.010Z,63.38
2022-12-31T14:58:36.869Z,61.51
2022-12-31T15:01:08.972Z,59.41
2022-12-31T15:03:45.353Z,59.03
2022-12-31T15:06:38.766Z,59.27
2022-12-31T15:09:18.809Z,59.07
2022-12-31T15:12:05.004Z,60.01
2022-12-31T15:14:52.412Z,60.65
2022-12-31T15:17:31.337Z,61.92
2022-12-31T15:20:24.276Z,62.65
2022-12-31T15:22:54.306Z,61.90
2022-12-31T15:25:29.035Z,63.13
2022-12-31T15:28:00.366Z,64.64
2022-12-31T15:30:36.613Z,64.77
2022-12-31T15:33:09.124Z,66.64
2022-12-31T15:35:51.436Z,63.73
2022-12-31T15:38:36.130Z,65.81
2022-12-31T15:41:25.551Z,66.30
2022-12-31T15:43:58.738Z,67.23
2022-12-31T15:46:31.515Z,66.24
2022-12-31T15:49:07.880Z,66.28
2022-12-31T15:51:45.724Z,67.83
2022-12-31T15:54:24.897Z,67.50
2022-12-31T15:56:55.387Z,67.34
2022-12-31T15:59:26.105Z,68.17
2022-12-31T16:01:57.194Z,69.28
2022-12-31T16:04:27.684Z,70.59
2022-12-31T16:07:00.345Z,70.72
2022-12-31T16:09:31.472Z,71.58
2022-12-31T16:12:03.359Z,70.91
2022-12-31T16:14:37.732Z,72.12
2022-12-31T16:17:07.083Z,73.10
2022-12-31T16:19:41.923Z,72.34
2022-12-31T16:22:16.799Z,72.13
2022-12-31T16:25:19.302Z,72.91
2022-12-31T16:27:36.941Z,73.12
2022-12-31T16:30:19.209Z,74.23
2022-12-31T16:32:49.915Z,74.29
2022-12-31T16:35:24.386Z,74.42
2022-12-31T16:38:14.092Z,73.99
2022-12-31T16:40:44.262Z,74.57
2022-12-31T16:43:27.291Z,74.90
2022-12-31T16:45:58.467Z,75.76
2022-12-31T16:48:28.898Z,75.61
2022-12-31T16:50:58.003Z,75.30
2022-12-31T16:53:29.793Z,74.91
2022-12-31T16:56:02.374Z,75.17
2022-12-31T16:58:35.838Z,74.89
2022-12-31T17:01:14.526Z,75.28
2022-12-31T17:03:46.604Z,75.09
2022-12-31T17:06:17.077Z,76.04
2022-12-31T17:08:50.834Z,75.55
2022-12-31T17:11:24.121Z,75.49
2022-12-31T17:13:57.719Z,74.61
2022-12-31T17:16:27.115Z,75.24
2022-12-31T17:18:55.823Z,75.20
2022-12-31T17:21:27.681Z,75.66
2022-12-31T17:23:58.755Z,76.52
2022-12-31T17:26:29.212Z,77.91
2022-12-31T17:29:01.227Z,77.12
2022-12-31T17:31:35.841Z,77.57
2022-12-31T17:34:23.205Z,77.03
2022-12-31T17:37:03.395Z,76.50
2022-12-31T17:39:51.194Z,77.23
2022-12-31T17:42:30.829Z,77.63
2022-12-31T17:45:03.210Z,76.80
2022-12-31T17:47:37.086Z,76.80
2022-12-31T17:50:14.257Z,76.08
2022-12-31T17:52:42.733Z,75.94
2022-12-31T17:55:11.359Z,76.25
2022-12-31T17:57:49.922Z,74.57
2022-12-31T18:00:21.950Z,74.75
2022-12-31T18:02:50.495Z,75.25
2022-12-31T18:05:21.292Z,75.53
2022-12-31T18:07:50.191Z,75.39
2022-12-31T18:10:20.783Z,76.55
2022-12-31T18:12:50.547Z,76.38
2022-12-31T18:15:22.822Z,76.95
2022-12-31T18:17:52.246Z,78.07
2022-12-31T18:20:20.884Z,78.11
2022-12-31T18:22:49.688Z,77.06
2022-12-31T18:25:20.241Z,77.67
2022-12-31T18:27:49.610Z,77.47
2022-12-31T18:30:18.493Z,77.28
2022-12-31T18:32:48.582Z,77.72
2022-12-31T18:36:07.130Z,76.98
2022-12-31T18:38:12.101Z,76.98
2022-12-31T18:40:44.040Z,77.02
2022-12-31T18:43:17.265Z,77.53
2022-12-31T18:45:46.409Z,77.88
2022-12-31T18:48:16.728Z,77.98
2022-12-31T18:50:45.913Z,78.45
2022-12-31T18:53:17.332Z,78.07
2022-12-31T18:55:49.511Z,77.84
2022-12-31T18:58:18.287Z,78.21
2022-12-31T19:00:48.192Z,78.19
2022-12-31T19:03:21.808Z,78.70
2022-12-31T19:05:51.294Z,78.74
2022-12-31T19:08:21.121Z,78.32
2022-12-31T19:10:51.792Z,78.80
2022-12-31T19:13:22.857Z,78.96
2022-12-31T19:15:53.101Z,78.52
2022-12-31T19:18:22.973Z,78.32
2022-12-31T19:20:52.086Z,78.22
2022-12-31T19:23:22.562Z,78.19
2022-12-31T19:25:51.351Z,77.97
2022-12-31T19:28:22.215Z,78.22
2022-12-31T19:30:50.917Z,78.95
2022-12-31T19:33:20.088Z,79.32
2022-12-31T19:35:50.103Z,79.49
2022-12-31T19:38:19.839Z,79.58
2022-12-31T19:40:48.969Z,79.33
2022-12-31T19:43:19.261Z,79.94
2022-12-31T19:45:49.271Z,79.93
2022-12-31T19:48:25.845Z,79.58
2022-12-31T19:51:00.201Z,79.84
2022-12-31T19:53:28.953Z,80.06
2022-12-31T19:55:57.386Z,81.08
2022-12-31T19:58:27.237Z,81.21
2022-12-31T20:01:02.048Z,81.47
2022-12-31T20:03:32.583Z,81.34
2022-12-31T20:06:04.967Z,80.92
2022-12-31T20:08:34.273Z,81.07
2022-12-31T20:11:08.802Z,81.30
2022-12-31T20:13:37.575Z,81.28
2022-12-31T20:16:08.346Z,81.12
2022-12-31T20:18:38.222Z,80.74
2022-12-31T20:21:11.719Z,80.80
2022-12-31T20:23:40.245Z,80.85
2022-12-31T20:26:08.859Z,81.17
2022-12-31T20:28:37.888Z,81.34
2022-12-31T20:31:07.949Z,81.23
2022-12-31T20:33:36.693Z,81.67
2022-12-31T20:36:07.284Z,81.22
2022-12-31T20:38:37.257Z,81.89
2022-12-31T20:41:06.183Z,81.33
2022-12-31T20:43:35.725Z,81.93
2022-12-31T20:46:10.981Z,81.59
2022-12-31T20:48:43.925Z,81.36
2022-12-31T20:51:13.045Z,81.18
2022-12-31T20:53:47.447Z,80.67
2022-12-31T20:56:16.344Z,80.69
2022-12-31T20:58:45.257Z,80.86
2022-12-31T21:01:14.993Z,80.95
2022-12-31T21:06:34.670Z,81.09
2022-12-31T21:09:06.679Z,81.14
2022-12-31T21:11:53.528Z,81.32
2022-12-31T21:14:22.232Z,80.61
2022-12-31T21:16:50.822Z,80.30
2022-12-31T21:19:19.328Z,79.98
2022-12-31T21:21:48.101Z,79.64
2022-12-31T21:24:23.556Z,79.15
2022-12-31T21:26:52.780Z,79.30
2022-12-31T21:29:21.248Z,78.79
2022-12-31T21:31:49.827Z,78.99
2022-12-31T21:34:18.522Z,77.99
2022-12-31T21:36:46.988Z,78.64
2022-12-31T21:39:15.555Z,78.57
2022-12-31T21:41:54.128Z,80.19
2022-12-31T21:44:24.450Z,79.85
2022-12-31T21:47:33.118Z,80.73
2022-12-31T21:49:45.250Z,79.68
2022-12-31T21:52:30.575Z,79.75
2022-12-31T21:55:18.820Z,79.91
2022-12-31T22:00:56.274Z,80.64
2022-12-31T22:03:28.527Z,80.92
2022-12-31T22:06:00.357Z,80.92
2022-12-31T22:08:30.019Z,81.46
2022-12-31T22:10:58.822Z,81.63
2022-12-31T22:13:28.748Z,81.61
2022-12-31T22:16:04.671Z,81.89
2022-12-31T22:18:35.599Z,81.18
2022-12-31T22:21:10.858Z,81.13
2022-12-31T22:23:44.447Z,81.74
2022-12-31T22:26:15.370Z,81.66
2022-12-31T22:28:46.899Z,82.01
2022-12-31T22:31:16.975Z,81.96
2022-12-31T22:33:46.189Z,81.91
2022-12-31T22:36:16.621Z,82.07
2022-12-31T22:38:45.749Z,82.04
2022-12-31T22:41:15.853Z,82.02
2022-12-31T22:43:48.217Z,82.24
2022-12-31T22:46:18.328Z,82.17
2022-12-31T22:48:47.453Z,82.44
2022-12-31T22:51:17.558Z,82.86
2022-12-31T22:53:46.463Z,82.31
2022-12-31T22:56:17.800Z,82.73
2022-12-31T22:58:47.689Z,83.11
2022-12-31T23:01:18.990Z,83.60
2022-12-31T23:03:48.493Z,83.67
2022-12-31T23:06:17.914Z,82.48
2022-12-31T23:09:06.696Z,81.19
2022-12-31T23:11:36.233Z,81.41
2022-12-31T23:14:25.370Z,81.99
2022-12-31T23:17:29.449Z,82.16
2022-12-31T23:20:16.381Z,82.63
2022-12-31T23:23:02.392Z,82.42
2022-12-31T23:25:32.347Z,81.97
2022-12-31T23:28:00.859Z,82.05
2022-12-31T23:30:30.756Z,82.95
2022-12-31T23:32:59.119Z,82.76
2022-12-31T23:35:27.678Z,83.10
2022-12-31T23:37:56.254Z,82.56
2022-12-31T23:40:34.060Z,83.46
2022-12-31T23:43:04.463Z,82.83
2022-12-31T23:45:35.468Z,83.32
2022-12-31T23:48:04.153Z,82.76
2022-12-31T23:50:32.658Z,80.55
2022-12-31T23:53:01.077Z,79.43
2022-12-31T23:55:29.586Z,78.99
2022-12-31T23:57:57.983Z,79.13
